Time;durP1;ratioP1;P1;durP2;ratioP2;P2;SDS_P1;SDS_P2;PMS_P1;PMS_P2;Temp;Humidity;BMP_temperature;BMP_pressure;BME280_temperature;BME280_humidity;BME280_pressure;Samples;Min_cycle;Max_cycle;Signal;HPM_P1;HPM_P2
2023/02/18 00:00:43;;;;;;;10.38;1.70;;;;;;;7.19;64.60;100904.00;10184056;29;20043;-81
2023/02/18 00:05:46;;;;;;;9.85;1.73;;;;;;;7.12;65.11;100894.59;10181180;29;20075;-80
2023/02/18 00:10:49;;;;;;;17.90;3.17;;;;;;;6.83;68.24;100901.63;10173931;29;20040;-79
2023/02/18 00:15:53;;;;;;;11.20;3.85;;;;;;;6.66;70.44;100904.34;10180520;29;20086;-79
2023/02/18 00:20:56;;;;;;;14.18;4.95;;;;;;;6.67;71.80;100901.63;10179924;29;20103;-80
2023/02/18 00:25:59;;;;;;;13.50;4.95;;;;;;;6.62;73.10;100895.66;10184060;29;20075;-80
2023/02/18 00:31:08;;;;;;;15.98;7.25;;;;;;;6.82;75.15;100883.84;10181424;29;20044;-78
2023/02/18 00:36:14;;;;;;;20.30;9.10;;;;;;;6.81;76.69;100887.47;10180104;29;20047;-79
2023/02/18 00:41:18;;;;;;;27.42;10.18;;;;;;;6.55;79.19;100886.28;10176393;29;20044;-81
2023/02/18 00:46:23;;;;;;;30.27;13.68;;;;;;;6.85;79.44;100884.53;10183290;29;20036;-79
2023/02/18 00:51:28;;;;;;;29.23;14.00;;;;;;;6.82;80.73;100889.19;10179797;29;20047;-79
2023/02/18 00:56:33;;;;;;;34.28;15.23;;;;;;;6.87;81.00;100884.47;10178471;29;20052;-79
2023/02/18 01:01:37;;;;;;;34.03;16.42;;;;;;;6.85;82.65;100900.53;10177809;29;20040;-81
2023/02/18 01:06:42;;;;;;;36.53;15.90;;;;;;;7.16;81.70;100884.59;10182302;29;20046;-81
2023/02/18 01:11:45;;;;;;;32.90;17.25;;;;;;;7.27;82.40;100884.84;10175980;29;20051;-80
2023/02/18 01:16:49;;;;;;;35.85;19.40;;;;;;;7.02;83.43;100877.38;10180010;29;20068;-81
2023/02/18 01:21:52;;;;;;;32.45;18.40;;;;;;;7.30;83.01;100878.44;10180494;29;20044;-80
2023/02/18 01:26:55;;;;;;;33.67;18.88;;;;;;;7.63;81.78;100875.56;10175391;29;20055;-81
2023/02/18 01:31:59;;;;;;;32.25;17.00;;;;;;;7.59;81.79;100868.66;10179457;29;20036;-81
2023/02/18 01:37:02;;;;;;;35.13;18.65;;;;;;;7.45;82.30;100861.47;10170934;29;20044;-80
2023/02/18 01:42:06;;;;;;;40.97;18.50;;;;;;;7.67;80.68;100869.06;10190347;29;20048;-81
2023/02/18 01:47:10;;;;;;;41.65;20.80;;;;;;;7.49;82.29;100853.19;10193018;29;20059;-82
2023/02/18 01:52:19;;;;;;;37.05;19.67;;;;;;;7.53;81.56;100847.66;10198160;29;20492;-81
2023/02/18 01:57:25;;;;;;;38.97;20.88;;;;;;;7.85;80.62;100826.94;10192518;29;20044;-81
2023/02/18 02:02:32;;;;;;;39.95;23.73;;;;;;;7.85;80.87;100824.28;10181881;29;20040;-81
2023/02/18 02:07:35;;;;;;;48.45;25.13;;;;;;;7.64;82.55;100826.47;10186893;29;20048;-80
2023/02/18 02:12:52;;;;;;;48.33;24.63;;;;;;;7.92;81.65;100820.25;10186981;29;20048;-80
2023/02/18 02:18:15;;;;;;;46.55;24.40;;;;;;;8.08;81.36;100809.44;10181723;29;20515;-81
2023/02/18 02:23:45;;;;;;;45.35;23.42;;;;;;;7.87;81.87;100798.28;10188385;29;20052;-81
2023/02/18 02:29:04;;;;;;;47.13;23.95;;;;;;;7.91;81.74;100798.00;10188791;29;20040;-81
2023/02/18 02:34:45;;;;;;;47.65;25.35;;;;;;;8.21;81.70;100782.75;10185407;29;20040;-81
2023/02/18 02:40:01;;;;;;;57.72;28.05;;;;;;;8.12;83.17;100774.38;10178278;29;20051;-80
2023/02/18 02:45:11;;;;;;;49.60;26.63;;;;;;;8.14;83.84;100755.50;10175750;29;20139;-81
2023/02/18 02:50:21;;;;;;;53.15;27.52;;;;;;;7.97;84.42;100767.31;10188234;29;20121;-82
2023/02/18 02:55:24;;;;;;;49.30;26.52;;;;;;;8.21;83.61;100754.16;10187283;29;20440;-82
2023/02/18 03:00:43;;;;;;;55.22;28.02;;;;;;;8.13;84.38;100743.97;10187231;29;20064;-82
2023/02/18 03:06:08;;;;;;;52.65;25.48;;;;;;;7.87;85.78;100748.34;10183953;29;20085;-81
2023/02/18 03:11:14;;;;;;;48.63;26.98;;;;;;;8.14;84.71;100739.47;10176751;29;20072;-82
2023/02/18 03:16:27;;;;;;;49.60;25.17;;;;;;;8.03;85.49;100733.94;10178868;29;20044;-80
2023/02/18 03:21:36;;;;;;;54.65;25.83;;;;;;;8.19;84.74;100699.88;10179535;29;20455;-82
2023/02/18 03:26:45;;;;;;;48.92;24.30;;;;;;;8.19;85.04;100699.88;10199391;29;20048;-78
2023/02/18 03:31:54;;;;;;;53.92;26.02;;;;;;;8.03;86.57;100691.16;10181541;29;20048;-80
2023/02/18 03:37:01;;;;;;;53.45;27.98;;;;;;;8.38;85.64;100686.13;10184308;29;20103;-82
2023/02/18 03:42:06;;;;;;;49.05;27.60;;;;;;;8.07;87.10;100690.84;10166415;29;20140;-80
2023/02/18 03:47:09;;;;;;;50.03;27.10;;;;;;;8.13;88.52;100676.22;10170141;29;20048;-82
2023/02/18 03:52:13;;;;;;;52.90;26.00;;;;;;;8.21;88.02;100673.03;10171487;29;20032;-81
2023/02/18 03:57:16;;;;;;;50.55;23.52;;;;;;;7.91;90.01;100663.38;10169229;29;20068;-82
2023/02/18 04:02:19;;;;;;;45.90;23.27;;;;;;;8.20;89.59;100644.53;10159856;29;20488;-80
2023/02/18 04:07:23;;;;;;;54.95;23.75;;;;;;;7.95;90.20;100643.50;10166176;29;20431;-82
2023/02/18 04:12:26;;;;;;;55.08;24.08;;;;;;;8.28;88.89;100632.38;10165256;29;20067;-79
2023/02/18 04:17:29;;;;;;;49.40;24.33;;;;;;;8.24;89.51;100632.69;10166716;29;20048;-79
2023/02/18 04:22:33;;;;;;;42.97;21.65;;;;;;;8.43;89.27;100630.47;10167417;29;20068;-80
2023/02/18 04:27:36;;;;;;;43.05;20.27;;;;;;;8.05;92.25;100617.84;10159494;29;20051;-81
2023/02/18 04:32:39;;;;;;;45.47;19.70;;;;;;;8.49;89.85;100607.81;10170311;29;20128;-84
2023/02/18 04:37:43;;;;;;;34.72;17.27;;;;;;;8.52;90.33;100608.44;10161954;29;20653;-81
2023/02/18 04:42:46;;;;;;;38.95;18.77;;;;;;;8.39;90.75;100600.38;10164454;29;20518;-82
2023/02/18 04:47:49;;;;;;;34.10;17.33;;;;;;;8.46;91.67;100592.81;10172402;29;20524;-84
2023/02/18 04:52:53;;;;;;;32.65;16.30;;;;;;;8.71;90.40;100589.28;10173575;29;20044;-83
2023/02/18 04:57:55;;;;;;;25.23;13.15;;;;;;;8.56;91.73;100585.88;10178222;29;20072;-82
2023/02/18 05:02:58;;;;;;;25.05;12.25;;;;;;;8.70;91.14;100579.53;10178505;29;20040;-81
2023/02/18 05:08:03;;;;;;;26.58;13.80;;;;;;;8.60;92.30;100563.25;10169715;29;20060;-81
2023/02/18 05:13:06;;;;;;;26.58;13.25;;;;;;;8.27;95.60;100553.03;10174038;29;20044;-81
2023/02/18 05:18:09;;;;;;;29.77;14.63;;;;;;;8.38;95.27;100550.47;10174866;29;20044;-80
2023/02/18 05:23:13;;;;;;;38.78;20.42;;;;;;;8.57;95.19;100546.53;10175319;29;20079;-79
2023/02/18 05:28:16;;;;;;;41.00;18.08;;;;;;;8.16;96.41;100543.06;10171643;29;20044;-80
2023/02/18 05:33:19;;;;;;;37.03;17.33;;;;;;;8.34;96.81;100530.25;10164120;29;20040;-80
2023/02/18 05:38:23;;;;;;;38.45;17.63;;;;;;;8.14;97.90;100517.38;10173188;29;20072;-80
2023/02/18 05:43:26;;;;;;;44.42;21.05;;;;;;;8.49;96.72;100517.63;10167577;29;20040;-80
2023/02/18 05:48:29;;;;;;;42.00;17.67;;;;;;;8.34;97.22;100495.44;10175612;29;20036;-80
2023/02/18 05:53:33;;;;;;;44.42;21.65;;;;;;;8.34;97.78;100489.25;10169892;29;20033;-80
2023/02/18 05:58:36;;;;;;;44.95;22.20;;;;;;;8.37;97.50;100495.22;10173822;29;20119;-80
2023/02/18 06:03:39;;;;;;;48.30;21.63;;;;;;;8.57;96.83;100475.09;10167585;29;20444;-80
2023/02/18 06:08:43;;;;;;;40.42;17.08;;;;;;;8.54;95.86;100466.44;10162404;29;20075;-79
2023/02/18 06:13:46;;;;;;;44.90;22.23;;;;;;;8.34;97.39;100455.28;10162799;29;20190;-79
2023/02/18 06:18:49;;;;;;;45.17;19.23;;;;;;;8.18;98.85;100452.00;10168012;29;20051;-80
2023/02/18 06:23:53;;;;;;;41.20;17.92;;;;;;;8.24;97.49;100448.88;10163737;29;20637;-80
2023/02/18 06:28:56;;;;;;;40.00;18.80;;;;;;;8.34;97.50;100444.59;10160388;29;20037;-80
2023/02/18 06:33:59;;;;;;;36.72;18.27;;;;;;;8.22;97.82;100436.56;10161649;29;20103;-79
2023/02/18 06:39:04;;;;;;;37.55;18.70;;;;;;;8.51;96.69;100424.69;10162299;29;20056;-79
2023/02/18 06:44:07;;;;;;;34.95;16.23;;;;;;;8.50;96.37;100432.81;10151392;29;20036;-79
2023/02/18 06:49:10;;;;;;;25.92;12.45;;;;;;;8.27;98.47;100421.03;10164753;29;20088;-80
2023/02/18 06:54:14;;;;;;;23.13;11.13;;;;;;;8.46;96.41;100407.25;10170568;29;20045;-79
2023/02/18 06:59:17;;;;;;;19.25;10.00;;;;;;;8.40;98.15;100413.84;10176549;29;20047;-79
2023/02/18 07:04:20;;;;;;;19.48;9.48;;;;;;;8.58;96.34;100398.31;10180336;29;20044;-79
2023/02/18 07:09:24;;;;;;;18.05;9.18;;;;;;;8.25;98.76;100412.25;10186570;29;20048;-79
2023/02/18 07:14:27;;;;;;;12.07;5.88;;;;;;;8.45;97.53;100405.47;10175994;29;20465;-79
2023/02/18 07:19:30;;;;;;;9.40;5.10;;;;;;;8.17;99.63;100391.38;10184952;29;20047;-80
2023/02/18 07:24:35;;;;;;;5.38;3.30;;;;;;;8.15;98.97;100379.97;10185633;29;20043;-80
2023/02/18 07:29:37;;;;;;;6.43;3.83;;;;;;;8.11;98.56;100392.69;10183733;29;20047;-80
2023/02/18 07:34:40;;;;;;;6.10;4.47;;;;;;;8.15;99.46;100409.38;10184827;29;20040;-79
2023/02/18 07:39:45;;;;;;;10.27;6.07;;;;;;;8.00;100.00;100389.06;10183301;29;20396;-79
2023/02/18 07:44:48;;;;;;;7.40;5.32;;;;;;;8.21;99.78;100381.34;10176679;29;20053;-81
2023/02/18 07:49:51;;;;;;;8.43;5.97;;;;;;;8.01;100.00;100378.25;10179197;29;20044;-79
2023/02/18 07:54:55;;;;;;;9.80;6.88;;;;;;;8.08;99.84;100355.44;10181455;29;20041;-81
2023/02/18 07:59:58;;;;;;;9.73;7.28;;;;;;;8.09;99.78;100386.59;10181114;29;20051;-81
2023/02/18 08:05:01;;;;;;;5.95;4.53;;;;;;;7.99;100.00;100372.16;10181079;29;20036;-79
2023/02/18 08:10:06;;;;;;;6.45;5.25;;;;;;;8.12;99.61;100389.06;10178514;29;20055;-80
2023/02/18 08:15:09;;;;;;;5.88;4.65;;;;;;;8.13;99.72;100388.09;10186960;29;20040;-79
2023/02/18 08:20:12;;;;;;;8.25;6.32;;;;;;;8.17;100.00;100392.28;10181904;29;20558;-81
2023/02/18 08:25:17;;;;;;;6.00;4.88;;;;;;;8.20;99.67;100372.47;10179722;29;20052;-81
2023/02/18 08:30:31;;;;;;;7.78;4.88;;;;;;;8.11;100.00;100368.59;10181093;29;20040;-82
2023/02/18 08:35:34;;;;;;;6.43;3.85;;;;;;;8.06;100.00;100377.91;10180107;29;20072;-79
2023/02/18 08:40:39;;;;;;;6.50;4.85;;;;;;;8.05;100.00;100378.88;10179779;29;20099;-80
2023/02/18 08:45:43;;;;;;;6.15;4.80;;;;;;;7.91;100.00;100363.81;10167081;29;20040;-80
2023/02/18 08:50:46;;;;;;;4.82;3.25;;;;;;;7.78;100.00;100365.63;10179325;29;20110;-79
2023/02/18 08:55:50;;;;;;;4.85;3.60;;;;;;;7.87;100.00;100364.97;10189027;29;20040;-81
2023/02/18 09:00:52;;;;;;;5.63;3.88;;;;;;;7.97;100.00;100358.03;10195826;29;20055;-79
2023/02/18 09:05:56;;;;;;;6.00;4.50;;;;;;;8.14;100.00;100346.97;10176111;29;20052;-80
2023/02/18 09:11:03;;;;;;;6.45;5.68;;;;;;;8.11;100.00;100354.38;10174948;29;20412;-81
2023/02/18 09:16:08;;;;;;;5.40;3.72;;;;;;;8.15;100.00;100339.81;10184873;29;20048;-81
2023/02/18 09:21:13;;;;;;;8.23;4.78;;;;;;;8.01;100.00;100339.94;10193848;29;20055;-79
2023/02/18 09:26:21;;;;;;;4.22;3.78;;;;;;;7.85;100.00;100334.84;10206805;29;20048;-80
2023/02/18 09:31:26;;;;;;;5.43;4.80;;;;;;;8.23;99.14;100333.91;10195589;29;20040;-80
2023/02/18 09:36:30;;;;;;;4.05;2.72;;;;;;;8.00;99.92;100359.63;10196430;29;20460;-78
2023/02/18 09:41:42;;;;;;;3.35;2.88;;;;;;;8.00;100.00;100370.34;10193373;29;20039;-80
2023/02/18 09:46:50;;;;;;;5.10;4.30;;;;;;;8.13;98.77;100345.28;10188464;29;20048;-81
2023/02/18 09:51:55;;;;;;;3.90;3.50;;;;;;;8.17;98.58;100362.84;10192870;29;20043;-80
2023/02/18 09:57:01;;;;;;;5.00;4.50;;;;;;;7.78;100.00;100369.16;10194736;29;20043;-80
2023/02/18 10:02:03;;;;;;;5.53;4.00;;;;;;;7.88;100.00;100329.25;10192294;29;20051;-79
2023/02/18 10:07:12;;;;;;;4.00;3.67;;;;;;;7.69;100.00;100322.53;10195734;29;20067;-81
2023/02/18 10:12:20;;;;;;;3.40;2.95;;;;;;;7.92;100.00;100339.63;10186419;29;20036;-81
2023/02/18 10:17:26;;;;;;;4.35;3.78;;;;;;;7.81;99.57;100365.41;10192219;29;20059;-81
2023/02/18 10:22:29;;;;;;;4.35;3.65;;;;;;;7.83;100.00;100323.38;10193964;29;20040;-82
2023/02/18 10:27:37;;;;;;;6.90;6.07;;;;;;;7.90;100.00;100330.03;10192680;29;20039;-82
2023/02/18 10:32:44;;;;;;;7.30;6.30;;;;;;;7.68;100.00;100371.63;10180443;29;20050;-82
2023/02/18 10:38:00;;;;;;;7.78;5.55;;;;;;;7.31;100.00;100362.59;10170719;29;20044;-83
2023/02/18 10:43:16;;;;;;;5.47;4.85;;;;;;;7.43;100.00;100336.84;10182969;29;20071;-80
2023/02/18 10:48:33;;;;;;;4.68;4.07;;;;;;;7.38;100.00;100334.50;10176073;29;20047;-81
2023/02/18 10:53:38;;;;;;;4.53;4.10;;;;;;;7.54;100.00;100334.28;10175877;29;20040;-81
2023/02/18 10:58:47;;;;;;;3.63;2.80;;;;;;;7.70;98.93;100363.47;10167168;29;20512;-81
2023/02/18 11:03:51;;;;;;;5.03;3.42;;;;;;;7.92;98.62;100360.16;10145231;29;20049;-83
2023/02/18 11:08:56;;;;;;;4.38;2.53;;;;;;;7.42;100.00;100360.03;10154582;29;20484;-81
2023/02/18 11:14:03;;;;;;;6.38;4.70;;;;;;;7.35;100.00;100357.88;10146248;29;20064;-81
2023/02/18 11:19:06;;;;;;;6.50;3.85;;;;;;;7.40;100.00;100345.06;10158013;29;20056;-83
2023/02/18 11:24:10;;;;;;;8.05;5.13;;;;;;;7.61;100.00;100361.47;10167235;29;20413;-82
2023/02/18 11:29:21;;;;;;;4.30;2.97;;;;;;;6.98;100.00;100355.03;10169874;29;20420;-83
2023/02/18 11:34:27;;;;;;;6.03;4.07;;;;;;;7.63;100.00;100347.03;10151863;29;20044;-80
2023/02/18 11:39:31;;;;;;;4.82;3.63;;;;;;;7.26;100.00;100346.84;10183976;29;20040;-80
2023/02/18 11:44:38;;;;;;;3.42;2.85;;;;;;;7.28;100.00;100331.59;10226960;29;20048;-80
2023/02/18 11:49:43;;;;;;;5.05;3.97;;;;;;;7.24;100.00;100386.22;10211944;29;20127;-80
2023/02/18 11:55:00;;;;;;;3.10;1.95;;;;;;;7.23;100.00;100365.78;10186063;29;20064;-79
2023/02/18 12:00:17;;;;;;;5.03;2.67;;;;;;;7.42;100.00;100385.91;10175761;29;20048;-79
2023/02/18 12:05:22;;;;;;;4.07;2.65;;;;;;;7.64;99.44;100388.81;10167273;29;20048;-79
2023/02/18 12:10:30;;;;;;;4.13;3.38;;;;;;;7.53;100.00;100353.09;10174118;29;20416;-81
2023/02/18 12:15:46;;;;;;;5.70;2.97;;;;;;;7.33;100.00;100359.81;10169800;29;20048;-80
2023/02/18 12:21:08;;;;;;;3.65;2.97;;;;;;;7.43;100.00;100367.13;10141931;29;20044;-80
2023/02/18 12:26:22;;;;;;;5.37;3.57;;;;;;;7.59;99.50;100361.56;10146960;29;20165;-79
2023/02/18 12:31:49;;;;;;;3.75;2.92;;;;;;;7.60;99.03;100375.78;10185812;29;20123;-82
2023/02/18 12:37:03;;;;;;;6.43;4.00;;;;;;;8.01;97.37;100362.22;10188636;29;20051;-80
2023/02/18 12:42:24;;;;;;;4.40;2.90;;;;;;;7.27;97.34;100343.25;10196779;29;20051;-81
2023/02/18 12:47:40;;;;;;;5.60;3.53;;;;;;;7.69;98.42;100385.84;10190907;29;20044;-80
2023/02/18 12:52:54;;;;;;;5.90;2.90;;;;;;;7.71;98.58;100368.75;10181942;29;20040;-82
2023/02/18 12:58:05;;;;;;;5.88;4.40;;;;;;;7.39;100.00;100370.94;10176376;29;20415;-84
2023/02/18 13:03:32;;;;;;;4.28;2.88;;;;;;;7.23;100.00;100367.59;10211304;29;20067;-82
2023/02/18 13:08:45;;;;;;;6.97;2.65;;;;;;;7.19;100.00;100384.81;10188450;29;20492;-84
2023/02/18 13:13:58;;;;;;;6.63;4.90;;;;;;;7.54;98.89;100386.88;10190423;29;20404;-83
2023/02/18 13:19:11;;;;;;;6.40;4.38;;;;;;;7.78;98.90;100397.72;10141674;29;20432;-81
2023/02/18 13:24:18;;;;;;;5.63;3.72;;;;;;;7.52;100.00;100403.03;10143756;29;20049;-85
2023/02/18 13:29:29;;;;;;;6.25;3.55;;;;;;;7.51;99.46;100379.94;10156333;29;20056;-80
2023/02/18 13:34:38;;;;;;;5.03;4.10;;;;;;;7.65;99.20;100387.00;10180115;29;20059;-79
2023/02/18 13:39:48;;;;;;;7.22;5.15;;;;;;;7.91;98.23;100388.72;10165329;29;20052;-80
2023/02/18 13:45:04;;;;;;;6.18;4.70;;;;;;;7.62;99.26;100369.34;10156422;29;20059;-80
2023/02/18 13:50:28;;;;;;;7.45;6.03;;;;;;;7.68;99.87;100381.47;10141224;29;20048;-81
2023/02/18 13:55:39;;;;;;;12.32;5.88;;;;;;;7.44;99.96;100390.19;10155792;29;20067;-79
2023/02/18 14:00:48;;;;;;;9.35;5.03;;;;;;;7.89;98.40;100387.13;10158861;29;20072;-80
2023/02/18 14:05:56;;;;;;;15.75;6.90;;;;;;;7.76;98.35;100383.59;10174627;29;20048;-81
2023/02/18 14:11:43;;;;;;;12.07;7.38;;;;;;;7.65;99.87;100389.69;10193773;29;20068;-81
2023/02/18 14:17:29;;;;;;;16.00;7.72;;;;;;;8.14;96.61;100386.25;10206990;29;20039;-80
2023/02/18 14:22:45;;;;;;;10.82;6.75;;;;;;;8.18;95.97;100385.94;10173976;29;20048;-82
2023/02/18 14:27:52;;;;;;;11.80;7.00;;;;;;;8.28;94.66;100391.50;10200100;29;20063;-83
2023/02/18 14:32:59;;;;;;;13.02;7.53;;;;;;;7.89;96.05;100397.81;10189430;29;20071;-83
2023/02/18 14:38:40;;;;;;;10.38;5.88;;;;;;;7.82;96.10;100400.09;10185504;29;20582;-82
2023/02/18 14:44:24;;;;;;;14.10;6.38;;;;;;;8.09;94.12;100410.69;10146250;29;20072;-82
2023/02/18 14:49:37;;;;;;;12.80;7.43;;;;;;;8.04;94.10;100418.16;10104696;29;20184;-79
2023/02/18 14:54:41;;;;;;;14.38;7.18;;;;;;;7.92;95.79;100421.69;10122885;29;21100;-82
2023/02/18 14:59:45;;;;;;;11.90;7.03;;;;;;;8.03;95.22;100432.50;10123936;29;20060;-82
2023/02/18 15:04:50;;;;;;;8.75;6.75;;;;;;;7.90;95.03;100420.97;10130352;29;20049;-80
2023/02/18 15:09:54;;;;;;;13.45;7.18;;;;;;;8.01;94.74;100415.72;10117247;29;20096;-82
2023/02/18 15:15:03;;;;;;;11.90;7.80;;;;;;;8.17;95.10;100423.50;10134388;29;20055;-79
2023/02/18 15:20:07;;;;;;;21.48;7.60;;;;;;;8.06;95.58;100431.41;10131545;29;20044;-81
2023/02/18 15:25:13;;;;;;;14.55;6.97;;;;;;;8.06;94.65;100439.44;10133411;29;20049;-82
2023/02/18 15:30:24;;;;;;;11.32;6.28;;;;;;;8.16;93.49;100433.34;10141893;29;20048;-84
2023/02/18 15:35:30;;;;;;;11.65;5.88;;;;;;;7.76;95.77;100453.13;10155465;29;20056;-82
2023/02/18 15:40:36;;;;;;;11.60;7.50;;;;;;;8.04;93.56;100436.91;10157179;29;20067;-82
2023/02/18 15:45:44;;;;;;;16.20;7.63;;;;;;;7.97;95.26;100440.94;10138137;29;20097;-82
2023/02/18 15:50:51;;;;;;;11.90;6.57;;;;;;;8.14;94.82;100437.94;10133209;29;20075;-84
2023/02/18 15:55:55;;;;;;;12.93;5.88;;;;;;;8.04;93.79;100442.25;10113365;29;20145;-82
2023/02/18 16:01:01;;;;;;;13.88;7.43;;;;;;;8.07;94.46;100450.06;10114379;29;20678;-82
2023/02/18 16:06:11;;;;;;;12.75;6.63;;;;;;;7.93;95.12;100451.00;10147480;29;20048;-82
2023/02/18 16:11:14;;;;;;;16.65;7.93;;;;;;;8.38;92.95;100439.88;10138688;29;20459;-82
2023/02/18 16:16:25;;;;;;;18.80;7.70;;;;;;;7.97;94.50;100462.34;10159133;29;20138;-80
2023/02/18 16:21:33;;;;;;;14.65;6.47;;;;;;;8.16;93.61;100453.91;10138881;29;20052;-81
2023/02/18 16:26:43;;;;;;;16.67;7.47;;;;;;;8.08;93.74;100480.34;10148384;29;20052;-82
2023/02/18 16:31:47;;;;;;;14.57;8.05;;;;;;;7.85;95.25;100484.59;10106854;29;20071;-81
2023/02/18 16:42:25;;;;;;;12.20;6.55;;;;;;;7.88;93.99;100477.22;10070445;29;20045;-81
2023/02/18 16:47:29;;;;;;;13.68;7.70;;;;;;;8.10;94.70;100489.97;10113348;29;20152;-80
2023/02/18 16:52:32;;;;;;;17.08;9.07;;;;;;;8.15;94.41;100484.31;10125267;29;20084;-81
2023/02/18 16:57:35;;;;;;;18.50;8.00;;;;;;;8.36;93.65;100496.19;10126241;29;20084;-79
2023/02/18 17:02:39;;;;;;;23.23;10.40;;;;;;;7.90;97.27;100501.19;10127011;29;20052;-80
2023/02/18 17:07:42;;;;;;;21.65;9.32;;;;;;;7.89;96.72;100500.31;10129322;29;20048;-80
2023/02/18 17:12:45;;;;;;;18.30;8.45;;;;;;;8.09;94.86;100509.69;10124390;29;20056;-78
2023/02/18 17:17:49;;;;;;;22.48;9.70;;;;;;;8.08;95.47;100501.75;10127811;29;20148;-79
2023/02/18 17:22:52;;;;;;;21.23;10.57;;;;;;;7.84;95.09;100507.78;10128372;29;20123;-79
2023/02/18 17:27:55;;;;;;;18.70;8.10;;;;;;;7.76;96.13;100522.63;10125839;29;20052;-79
2023/02/18 17:33:01;;;;;;;18.95;8.75;;;;;;;8.06;93.70;100519.72;10126286;29;20059;-80
2023/02/18 17:38:09;;;;;;;28.13;8.02;;;;;;;8.09;94.10;100531.06;10150690;29;20048;-80
2023/02/18 17:43:14;;;;;;;20.35;10.80;;;;;;;8.39;92.32;100527.22;10155886;29;20143;-79
2023/02/18 17:48:22;;;;;;;12.65;6.82;;;;;;;7.90;93.86;100542.16;10136550;29;20105;-79
2023/02/18 17:53:25;;;;;;;25.30;9.40;;;;;;;8.08;93.08;100540.06;10130764;29;20059;-78
2023/02/18 17:58:27;;;;;;;19.30;9.73;;;;;;;7.99;93.71;100535.34;10149951;29;20542;-77
2023/02/18 18:03:32;;;;;;;20.60;9.75;;;;;;;8.29;91.59;100543.09;10160127;29;20186;-80
2023/02/18 18:08:35;;;;;;;24.38;9.00;;;;;;;8.07;91.81;100553.56;10160767;29;20108;-80
2023/02/18 18:13:37;;;;;;;16.77;8.50;;;;;;;8.15;91.84;100543.19;10158111;29;20119;-80
2023/02/18 18:18:42;;;;;;;11.93;6.07;;;;;;;7.66;92.20;100547.34;10176683;29;20115;-80
2023/02/18 18:23:45;;;;;;;22.27;8.85;;;;;;;7.92;91.88;100556.28;10157811;29;20059;-79
2023/02/18 18:28:48;;;;;;;20.55;9.02;;;;;;;8.00;90.97;100555.75;10154563;29;20052;-81
2023/02/18 18:33:53;;;;;;;14.68;8.10;;;;;;;8.12;89.50;100544.25;10156218;29;20051;-81
2023/02/18 18:38:56;;;;;;;17.88;7.38;;;;;;;7.88;90.66;100552.09;10153897;29;20999;-81
2023/02/18 18:43:59;;;;;;;20.73;8.90;;;;;;;7.76;91.01;100552.06;10141408;29;20080;-81
2023/02/18 18:49:03;;;;;;;17.05;8.48;;;;;;;7.86;90.46;100569.22;10181156;29;21345;-79
2023/02/18 18:54:06;;;;;;;16.17;7.07;;;;;;;7.58;89.81;100563.03;10160988;29;20055;-82
2023/02/18 18:59:08;;;;;;;13.40;5.97;;;;;;;7.84;88.46;100563.09;10160096;29;21775;-81
2023/02/18 19:04:13;;;;;;;16.60;6.30;;;;;;;7.94;88.19;100569.56;10150453;29;20100;-81
2023/02/18 19:09:16;;;;;;;21.05;7.40;;;;;;;7.94;88.47;100577.59;10130404;29;20052;-81
2023/02/18 19:14:20;;;;;;;22.23;8.52;;;;;;;8.05;88.01;100579.53;10124466;29;20056;-81
2023/02/18 19:19:25;;;;;;;15.40;7.80;;;;;;;8.04;87.08;100576.00;10111620;29;20070;-82
2023/02/18 19:24:27;;;;;;;18.10;7.97;;;;;;;8.35;86.28;100573.91;10122100;29;20063;-80
2023/02/18 19:29:30;;;;;;;20.33;9.10;;;;;;;8.11;87.92;100573.78;10129148;29;20619;-80
2023/02/18 19:34:35;;;;;;;18.65;8.20;;;;;;;7.99;87.12;100571.94;10127158;29;21237;-81
2023/02/18 19:39:38;;;;;;;19.92;8.98;;;;;;;8.17;87.11;100570.66;10162122;29;21244;-80
2023/02/18 19:44:41;;;;;;;15.93;8.13;;;;;;;7.81;87.87;100574.84;10171094;29;20575;-80
2023/02/18 19:49:45;;;;;;;19.02;9.70;;;;;;;8.33;86.69;100571.34;10168118;29;20051;-81
2023/02/18 19:54:48;;;;;;;24.27;9.80;;;;;;;8.33;86.58;100570.47;10155391;29;20099;-80
2023/02/18 19:59:52;;;;;;;23.40;10.52;;;;;;;8.23;87.17;100572.94;10155142;29;20084;-79
2023/02/18 20:04:56;;;;;;;16.92;8.45;;;;;;;8.10;87.76;100572.06;10159019;29;22058;-79
2023/02/18 20:09:59;;;;;;;18.05;10.30;;;;;;;8.00;88.29;100561.13;10168525;29;20087;-81
2023/02/18 20:15:02;;;;;;;21.95;10.77;;;;;;;8.20;87.79;100553.53;10159834;29;20059;-79
2023/02/18 20:20:07;;;;;;;20.70;11.93;;;;;;;7.97;89.54;100574.69;10140099;29;20064;-80
2023/02/18 20:25:10;;;;;;;25.98;11.52;;;;;;;8.00;88.92;100558.44;10155594;29;20059;-81
2023/02/18 20:30:14;;;;;;;22.98;10.88;;;;;;;8.01;89.76;100556.63;10135569;29;20048;-80
2023/02/18 20:35:18;;;;;;;22.10;11.35;;;;;;;8.13;89.83;100550.44;10132965;29;20068;-80
2023/02/18 20:40:21;;;;;;;22.10;10.02;;;;;;;8.14;88.95;100531.59;10126019;29;20072;-81
2023/02/18 20:45:24;;;;;;;18.70;10.90;;;;;;;8.04;89.23;100548.41;10128096;29;20552;-81
2023/02/18 20:50:28;;;;;;;24.38;11.65;;;;;;;8.24;88.88;100542.53;10140325;29;20059;-81
2023/02/18 20:55:31;;;;;;;20.08;9.90;;;;;;;8.21;88.42;100537.41;10158578;29;20143;-80
2023/02/18 21:00:34;;;;;;;25.83;12.00;;;;;;;8.20;87.51;100532.13;10152317;29;20154;-80
2023/02/18 21:05:38;;;;;;;24.20;11.55;;;;;;;8.10;88.33;100526.59;10151164;29;20131;-80
2023/02/18 21:10:41;;;;;;;22.33;10.52;;;;;;;8.05;87.75;100526.03;10170128;29;20052;-80
2023/02/18 21:15:44;;;;;;;24.33;10.65;;;;;;;7.94;89.88;100529.44;10172467;29;20052;-80
2023/02/18 21:20:49;;;;;;;26.65;13.27;;;;;;;8.17;89.59;100530.53;10160304;29;20064;-80
2023/02/18 21:25:52;;;;;;;22.60;11.57;;;;;;;8.15;90.25;100541.34;10148861;29;20543;-80
2023/02/18 21:30:55;;;;;;;29.80;16.35;;;;;;;8.01;91.04;100528.06;10164589;29;20044;-81
2023/02/18 21:36:01;;;;;;;37.15;16.85;;;;;;;8.05;92.21;100516.19;10159198;29;20130;-81
2023/02/18 21:41:04;;;;;;;35.15;16.90;;;;;;;8.24;90.36;100514.94;10148896;29;20063;-81
2023/02/18 21:46:09;;;;;;;34.85;16.20;;;;;;;8.13;91.72;100516.50;10146785;29;20058;-82
2023/02/18 21:51:55;;;;;;;36.63;15.43;;;;;;;7.89;92.41;100508.34;10144842;29;20060;-80
2023/02/18 21:56:38;;;;;;;26.27;14.27;;;;;;;7.97;92.25;100510.50;10158352;29;20048;-81
2023/02/18 22:01:41;;;;;;;30.83;16.63;;;;;;;8.13;90.41;100500.47;10154590;29;20066;-79
2023/02/18 22:06:46;;;;;;;35.50;15.52;;;;;;;7.76;91.44;100471.84;10161622;29;20066;-79
2023/02/18 22:11:49;;;;;;;37.50;17.67;;;;;;;7.92;90.92;100491.22;10125811;29;20150;-79
2023/02/18 22:16:53;;;;;;;37.15;16.80;;;;;;;7.95;91.48;100494.56;10145127;29;20043;-80
2023/02/18 22:21:57;;;;;;;40.15;18.13;;;;;;;8.09;91.02;100493.63;10169657;29;20074;-81
2023/02/18 22:27:01;;;;;;;34.47;14.93;;;;;;;8.03;90.58;100487.81;10179435;29;20044;-80
2023/02/18 22:32:04;;;;;;;32.45;15.45;;;;;;;7.97;90.20;100490.91;10191748;29;20051;-81
2023/02/18 22:37:08;;;;;;;33.40;14.80;;;;;;;8.23;88.63;100483.75;10177693;29;20047;-79
2023/02/18 22:42:11;;;;;;;27.95;14.43;;;;;;;8.07;89.86;100486.66;10171860;29;20072;-80
2023/02/18 22:47:14;;;;;;;31.88;13.68;;;;;;;8.10;89.13;100476.59;10154506;29;20050;-81
2023/02/18 22:52:18;;;;;;;30.13;13.93;;;;;;;8.06;88.75;100467.06;10165431;29;20135;-81
2023/02/18 22:57:21;;;;;;;28.67;13.05;;;;;;;8.21;88.00;100449.09;10176842;29;20048;-79
2023/02/18 23:02:24;;;;;;;26.80;13.82;;;;;;;8.26;87.81;100451.44;10176775;29;20472;-80
2023/02/18 23:07:28;;;;;;;23.98;11.70;;;;;;;7.83;88.90;100441.91;10160265;29;20049;-80
2023/02/18 23:12:31;;;;;;;27.15;12.32;;;;;;;8.22;87.22;100434.75;10167283;29;20049;-80
2023/02/18 23:17:34;;;;;;;18.67;10.77;;;;;;;8.22;86.42;100428.53;10178521;29;20045;-81
2023/02/18 23:22:40;;;;;;;20.52;10.43;;;;;;;8.26;86.46;100409.50;10163116;29;20069;-80
2023/02/18 23:27:43;;;;;;;16.92;8.18;;;;;;;8.11;86.47;100399.84;10156849;29;20057;-81